Time;durP1;ratioP1;P1;durP2;ratioP2;P2;SDS_P1;SDS_P2;PMS_P1;PMS_P2;Temp;Humidity;BMP_temperature;BMP_pressure;BME280_temperature;BME280_humidity;BME280_pressure;Samples;Min_cycle;Max_cycle;Signal;HPM_P1;HPM_P2
2022/08/16 00:00:51;;;;;;;17.05;12.05;;;22.10;99.90;;;;;;4927070;29;20121;-65
2022/08/16 00:03:17;;;;;;;19.15;12.15;;;22.10;99.90;;;;;;4937401;29;20437;-65
2022/08/16 00:05:44;;;;;;;20.27;12.50;;;22.10;99.90;;;;;;4938370;29;20044;-65
2022/08/16 00:08:10;;;;;;;20.30;11.70;;;22.10;99.90;;;;;;4938465;29;20047;-65
2022/08/16 00:10:36;;;;;;;14.70;11.77;;;22.00;99.90;;;;;;4938659;29;20059;-65
2022/08/16 00:13:05;;;;;;;16.63;12.00;;;22.00;99.90;;;;;;4938168;29;20039;-65
2022/08/16 00:15:38;;;;;;;19.10;11.80;;;22.10;99.90;;;;;;4938341;29;20043;-65
2022/08/16 00:18:04;;;;;;;17.70;12.15;;;22.10;99.90;;;;;;4938184;29;20480;-64
2022/08/16 00:20:31;;;;;;;16.75;12.60;;;22.00;99.90;;;;;;4937889;29;20051;-64
2022/08/16 00:22:57;;;;;;;19.20;13.73;;;22.00;99.90;;;;;;4938244;29;20044;-64
2022/08/16 00:25:24;;;;;;;18.35;14.52;;;22.00;99.90;;;;;;4937988;29;20043;-64
2022/08/16 00:27:50;;;;;;;17.33;13.70;;;22.00;99.90;;;;;;4937262;29;20051;-64
2022/08/16 00:30:18;;;;;;;23.38;14.00;;;22.10;99.90;;;;;;4937867;29;20043;-65
2022/08/16 00:32:46;;;;;;;19.25;13.20;;;22.00;99.90;;;;;;4937990;29;20054;-64
2022/08/16 00:35:16;;;;;;;17.67;14.10;;;22.00;99.90;;;;;;4938275;29;20217;-65
2022/08/16 00:37:44;;;;;;;22.70;14.27;;;22.00;99.90;;;;;;4936896;29;20463;-65
2022/08/16 00:40:14;;;;;;;17.05;13.60;;;21.90;99.90;;;;;;4938148;29;20046;-65
2022/08/16 00:42:40;;;;;;;18.05;12.93;;;21.90;99.90;;;;;;4937787;29;20039;-65
2022/08/16 00:45:31;;;;;;;19.05;13.27;;;21.90;99.90;;;;;;4937725;29;20044;-64
2022/08/16 00:47:57;;;;;;;15.73;12.60;;;21.90;99.90;;;;;;4937624;29;20046;-64
2022/08/16 00:50:28;;;;;;;17.90;14.57;;;21.90;99.90;;;;;;4920732;29;20119;-64
2022/08/16 00:52:53;;;;;;;18.42;13.73;;;21.90;99.90;;;;;;4937432;29;20040;-64
2022/08/16 00:55:22;;;;;;;22.85;13.73;;;21.80;99.90;;;;;;4937505;29;20035;-64
2022/08/16 00:57:49;;;;;;;21.27;14.43;;;21.80;99.90;;;;;;4937417;29;20556;-64
2022/08/16 01:02:59;;;;;;;21.00;15.23;;;21.70;99.90;;;;;;4948831;29;20151;-60
2022/08/16 01:05:26;;;;;;;18.15;12.10;;;21.70;99.90;;;;;;4956969;29;20039;-59
2022/08/16 01:07:52;;;;;;;15.43;12.05;;;21.70;99.90;;;;;;4956908;28;20442;-60
2022/08/16 01:10:23;;;;;;;15.38;11.57;;;21.70;99.90;;;;;;4956840;28;20035;-60
2022/08/16 01:12:48;;;;;;;14.45;11.35;;;21.60;99.90;;;;;;4956831;28;20118;-59
2022/08/16 01:15:15;;;;;;;14.95;11.10;;;21.70;99.90;;;;;;4956457;28;20081;-60
2022/08/16 01:17:43;;;;;;;15.07;11.48;;;21.60;99.90;;;;;;4956747;28;20116;-59
2022/08/16 01:20:11;;;;;;;17.05;11.73;;;21.60;99.90;;;;;;4956668;28;20047;-59
2022/08/16 01:22:42;;;;;;;16.90;11.80;;;21.60;99.90;;;;;;4956580;28;20074;-60
2022/08/16 01:25:15;;;;;;;17.63;12.07;;;21.60;99.90;;;;;;4956623;28;20440;-60
2022/08/16 01:27:45;;;;;;;17.98;13.88;;;21.60;99.90;;;;;;4956536;28;20046;-59
2022/08/16 01:30:13;;;;;;;16.58;14.45;;;21.60;99.90;;;;;;4956535;28;20058;-59
2022/08/16 01:32:42;;;;;;;25.05;15.60;;;21.60;99.90;;;;;;4954945;29;20055;-59
2022/08/16 01:35:16;;;;;;;22.38;16.85;;;20.80;99.90;;;;;;4956160;28;20078;-59
2022/08/16 01:37:45;;;;;;;21.70;17.60;;;21.60;99.90;;;;;;4956065;28;20171;-59
2022/08/16 01:40:14;;;;;;;27.17;18.35;;;21.70;99.90;;;;;;4971077;28;20046;-59
2022/08/16 01:42:41;;;;;;;25.45;18.17;;;21.70;99.90;;;;;;4956205;28;20450;-59
2022/08/16 01:45:07;;;;;;;23.27;15.80;;;21.70;99.90;;;;;;4955077;29;20039;-59
2022/08/16 01:47:34;;;;;;;20.60;15.10;;;21.70;99.90;;;;;;4955922;28;20097;-59
2022/08/16 01:50:00;;;;;;;19.33;14.98;;;21.60;99.90;;;;;;4956149;28;20049;-59
2022/08/16 01:52:26;;;;;;;19.00;14.40;;;21.60;99.90;;;;;;4956105;28;20039;-59
2022/08/16 01:54:52;;;;;;;24.88;15.90;;;21.60;99.90;;;;;;4955770;28;20043;-59
2022/08/16 01:57:18;;;;;;;23.27;17.08;;;21.60;99.90;;;;;;4956321;28;20094;-59
2022/08/16 01:59:44;;;;;;;21.27;15.80;;;21.60;99.90;;;;;;4955997;28;20431;-59
2022/08/16 02:02:10;;;;;;;25.67;16.35;;;21.50;99.90;;;;;;4969009;28;20142;-59
2022/08/16 02:04:35;;;;;;;23.75;16.92;;;21.50;99.90;;;;;;4975331;28;20063;-59
2022/08/16 02:07:07;;;;;;;22.98;18.02;;;21.60;99.90;;;;;;4974657;28;20500;-59
2022/08/16 02:09:36;;;;;;;33.70;19.05;;;21.50;99.90;;;;;;4974945;28;20130;-59
2022/08/16 02:12:05;;;;;;;27.15;18.63;;;21.50;99.90;;;;;;4941871;28;20061;-59
2022/08/16 02:14:32;;;;;;;22.25;18.05;;;21.40;99.90;;;;;;4974649;28;20050;-60
2022/08/16 02:17:01;;;;;;;25.17;19.25;;;21.50;99.90;;;;;;4957590;28;20042;-59
2022/08/16 02:19:28;;;;;;;25.73;18.15;;;21.40;99.90;;;;;;4974503;28;20038;-59
2022/08/16 02:21:58;;;;;;;25.50;19.58;;;22.20;99.90;;;;;;4974717;28;20069;-59
2022/08/16 02:24:23;;;;;;;24.92;19.00;;;21.40;99.90;;;;;;4974786;28;20053;-59
2022/08/16 02:26:50;;;;;;;27.95;18.52;;;21.30;99.90;;;;;;4957454;28;20042;-59
2022/08/16 02:29:17;;;;;;;25.08;18.25;;;21.30;99.90;;;;;;4974674;28;20390;-59
2022/08/16 02:31:44;;;;;;;25.00;19.02;;;21.30;99.90;;;;;;4974436;28;20038;-59
2022/08/16 02:34:11;;;;;;;30.08;18.83;;;21.20;99.90;;;;;;4974690;28;20383;-60
2022/08/16 02:36:36;;;;;;;29.75;19.33;;;21.20;99.90;;;;;;4974058;28;20331;-60
2022/08/16 02:39:04;;;;;;;25.45;20.52;;;21.20;99.90;;;;;;4974527;28;20047;-60
2022/08/16 02:41:29;;;;;;;23.88;19.10;;;21.20;99.90;;;;;;4974429;28;20039;-67
2022/08/16 02:43:55;;;;;;;22.92;19.23;;;21.00;99.90;;;;;;4974295;28;20109;-61
2022/08/16 02:46:21;;;;;;;26.38;19.80;;;21.00;99.90;;;;;;4974709;28;20126;-59
2022/08/16 02:48:47;;;;;;;26.20;20.60;;;21.00;99.90;;;;;;4974589;28;20043;-59
2022/08/16 02:51:12;;;;;;;27.73;20.05;;;20.60;99.90;;;;;;4977690;28;20039;-60
2022/08/16 02:53:44;;;;;;;23.75;19.15;;;20.90;99.90;;;;;;4978422;28;20252;-60
2022/08/16 02:56:16;;;;;;;26.98;19.60;;;21.00;99.90;;;;;;4978116;28;20393;-59
2022/08/16 02:58:44;;;;;;;28.70;20.40;;;21.80;99.90;;;;;;4978695;28;20113;-59
2022/08/16 03:01:10;;;;;;;24.90;20.73;;;20.90;99.90;;;;;;4977567;28;20494;-61
2022/08/16 03:03:37;;;;;;;28.48;21.05;;;20.90;99.90;;;;;;4978101;28;20046;-60
2022/08/16 03:06:03;;;;;;;30.10;20.70;;;21.00;99.90;;;;;;4978036;28;20468;-60
2022/08/16 03:08:29;;;;;;;24.42;19.80;;;20.90;99.90;;;;;;4977835;28;20082;-59
2022/08/16 03:10:54;;;;;;;26.98;20.05;;;20.90;99.90;;;;;;4977751;28;20078;-59
2022/08/16 03:13:20;;;;;;;28.95;21.35;;;20.90;99.90;;;;;;4977651;28;20045;-60
2022/08/16 03:15:46;;;;;;;23.30;20.05;;;20.90;99.90;;;;;;4977698;28;20501;-60
2022/08/16 03:18:12;;;;;;;28.63;20.23;;;20.90;99.90;;;;;;4977966;28;20057;-60
2022/08/16 03:20:39;;;;;;;23.20;20.27;;;20.90;99.90;;;;;;4977981;28;20038;-60
2022/08/16 03:23:06;;;;;;;32.53;20.05;;;20.90;99.90;;;;;;4977526;28;20045;-60
2022/08/16 03:25:33;;;;;;;26.83;21.52;;;20.90;99.90;;;;;;4978105;28;20169;-60
2022/08/16 03:27:59;;;;;;;25.65;20.75;;;20.80;99.90;;;;;;4977510;28;20046;-59
2022/08/16 03:30:28;;;;;;;25.20;20.20;;;20.80;99.90;;;;;;4977538;28;20035;-59
2022/08/16 03:32:54;;;;;;;26.60;20.75;;;20.80;99.90;;;;;;4977660;28;20061;-59
2022/08/16 03:35:24;;;;;;;27.20;20.58;;;20.70;99.90;;;;;;4977596;28;20046;-60
2022/08/16 03:37:55;;;;;;;27.35;21.15;;;21.40;99.90;;;;;;4977413;28;20057;-59
2022/08/16 03:40:22;;;;;;;28.98;21.10;;;20.60;99.90;;;;;;4977405;28;20049;-59
2022/08/16 03:42:47;;;;;;;30.10;22.15;;;20.60;99.90;;;;;;4960136;28;20042;-59
2022/08/16 03:45:13;;;;;;;26.65;21.63;;;20.50;99.90;;;;;;4977610;28;20046;-59
2022/08/16 03:47:40;;;;;;;30.80;22.08;;;20.50;99.90;;;;;;4959889;28;20046;-59
2022/08/16 03:50:07;;;;;;;31.05;21.73;;;20.50;99.90;;;;;;4977305;28;20073;-59
2022/08/16 03:52:34;;;;;;;33.97;22.60;;;20.40;99.90;;;;;;4977159;28;20086;-59
2022/08/16 03:55:01;;;;;;;28.02;22.65;;;20.40;99.90;;;;;;4977058;28;20542;-59
2022/08/16 03:57:28;;;;;;;26.17;22.63;;;20.30;99.90;;;;;;4976900;28;20086;-59
2022/08/16 03:59:54;;;;;;;31.80;22.17;;;20.30;99.90;;;;;;4977268;28;20034;-59
2022/08/16 04:02:21;;;;;;;28.17;22.00;;;20.20;99.90;;;;;;4976290;28;20062;-59
2022/08/16 04:04:47;;;;;;;31.52;23.40;;;20.20;99.90;;;;;;4977033;28;20453;-59
2022/08/16 04:07:14;;;;;;;26.90;21.55;;;19.90;99.90;;;;;;4976750;28;20035;-59
2022/08/16 04:09:40;;;;;;;34.05;22.33;;;20.20;99.90;;;;;;4976638;28;20038;-59
2022/08/16 04:12:08;;;;;;;30.33;22.08;;;20.10;99.90;;;;;;4974955;28;20047;-59
2022/08/16 04:14:34;;;;;;;26.45;22.98;;;20.10;99.90;;;;;;4974937;28;20069;-59
2022/08/16 04:17:00;;;;;;;29.30;23.10;;;20.10;99.90;;;;;;4974921;28;20542;-59
2022/08/16 04:19:26;;;;;;;31.25;22.80;;;20.10;99.90;;;;;;4974725;28;20047;-59
2022/08/16 04:21:52;;;;;;;30.95;22.55;;;20.00;99.90;;;;;;4974702;28;20383;-59
2022/08/16 04:24:18;;;;;;;29.73;22.55;;;20.00;99.90;;;;;;4974460;28;20094;-59
2022/08/16 04:26:44;;;;;;;35.00;21.63;;;20.00;99.90;;;;;;4976065;28;20039;-59
2022/08/16 04:29:10;;;;;;;31.60;21.88;;;19.90;99.90;;;;;;4976474;28;20471;-59
2022/08/16 04:31:36;;;;;;;26.88;21.80;;;19.90;99.90;;;;;;4976453;28;20375;-59
2022/08/16 04:34:05;;;;;;;31.25;22.63;;;19.90;99.90;;;;;;4976237;28;20042;-60
2022/08/16 04:36:30;;;;;;;23.85;20.63;;;19.90;99.90;;;;;;4976234;28;20035;-59
2022/08/16 04:38:56;;;;;;;28.70;21.63;;;19.90;99.90;;;;;;4976183;28;20038;-59
2022/08/16 04:41:22;;;;;;;28.48;21.30;;;19.90;99.90;;;;;;4976306;28;20118;-59
2022/08/16 04:43:50;;;;;;;30.75;21.38;;;19.80;99.90;;;;;;4976267;28;20067;-59
2022/08/16 04:46:15;;;;;;;26.33;20.85;;;19.80;99.90;;;;;;4976110;28;20096;-59
2022/08/16 04:48:42;;;;;;;29.23;20.45;;;19.80;99.90;;;;;;4976522;28;20121;-59
2022/08/16 04:51:09;;;;;;;24.52;20.58;;;19.80;99.90;;;;;;4976101;28;20406;-59
2022/08/16 04:53:35;;;;;;;24.35;21.48;;;19.80;99.90;;;;;;4958940;28;20109;-60
2022/08/16 04:56:01;;;;;;;25.52;20.63;;;19.80;99.90;;;;;;4976076;28;20463;-59
2022/08/16 04:58:27;;;;;;;27.00;21.25;;;19.90;99.90;;;;;;4976055;28;20537;-59
2022/08/16 05:00:53;;;;;;;26.15;21.17;;;19.80;99.90;;;;;;4975919;28;20039;-59
2022/08/16 05:03:20;;;;;;;29.40;22.08;;;19.80;99.90;;;;;;4975492;28;20425;-59
2022/08/16 05:05:47;;;;;;;29.13;22.17;;;19.80;99.90;;;;;;4958555;28;20054;-60
2022/08/16 05:08:13;;;;;;;29.52;21.98;;;19.90;99.90;;;;;;4942395;28;20038;-60
2022/08/16 05:10:39;;;;;;;28.75;22.52;;;20.00;99.90;;;;;;4975890;28;20052;-61
2022/08/16 05:13:05;;;;;;;27.33;22.02;;;19.70;99.90;;;;;;4974961;28;20569;-61
2022/08/16 05:15:31;;;;;;;30.65;21.45;;;20.00;99.90;;;;;;4975536;28;20478;-60
2022/08/16 05:17:57;;;;;;;30.50;22.48;;;20.00;99.90;;;;;;4975574;28;20045;-60
2022/08/16 05:20:27;;;;;;;26.77;22.52;;;19.20;99.90;;;;;;4975408;28;20550;-60
2022/08/16 05:22:53;;;;;;;26.33;20.55;;;20.20;99.90;;;;;;4975583;28;20045;-60
2022/08/16 05:25:19;;;;;;;28.80;19.90;;;20.80;99.90;;;;;;4975454;28;20038;-60
2022/08/16 05:27:45;;;;;;;30.83;18.67;;;21.50;99.90;;;;;;4958074;28;20126;-60
2022/08/16 05:30:12;;;;;;;26.67;18.17;;;22.30;99.90;;;;;;4975238;28;20047;-60
2022/08/16 05:32:39;;;;;;;24.52;18.92;;;23.00;99.90;;;;;;4975356;28;20096;-61
2022/08/16 05:35:07;;;;;;;23.38;17.48;;;23.60;99.90;;;;;;4957754;28;20046;-61
2022/08/16 05:37:34;;;;;;;21.75;17.27;;;24.40;99.90;;;;;;4975126;28;20406;-61
2022/08/16 05:40:00;;;;;;;22.48;16.58;;;25.00;99.90;;;;;;4975319;28;20053;-61
2022/08/16 05:42:26;;;;;;;19.45;16.52;;;25.60;99.90;;;;;;4975118;28;20376;-60
2022/08/16 05:44:52;;;;;;;17.63;15.20;;;26.20;99.90;;;;;;4974867;28;20050;-61
2022/08/16 05:47:17;;;;;;;21.92;14.75;;;26.60;99.90;;;;;;4975161;28;20049;-60
2022/08/16 05:49:43;;;;;;;21.52;14.38;;;27.10;99.90;;;;;;4974731;28;20049;-60
2022/08/16 05:52:10;;;;;;;22.67;14.40;;;27.60;98.60;;;;;;4974731;28;20126;-61
2022/08/16 05:54:36;;;;;;;20.02;14.48;;;28.00;97.20;;;;;;4974669;28;20490;-61
2022/08/16 05:57:03;;;;;;;20.50;13.70;;;28.50;95.60;;;;;;4974934;28;20049;-61
2022/08/16 05:59:28;;;;;;;19.55;13.77;;;29.00;93.70;;;;;;4974591;28;20042;-61
2022/08/16 06:01:54;;;;;;;17.77;13.40;;;29.40;92.40;;;;;;4957123;28;20418;-61
2022/08/16 06:04:21;;;;;;;15.95;12.73;;;29.80;90.80;;;;;;4974654;28;20046;-61
2022/08/16 06:06:48;;;;;;;18.23;13.35;;;30.30;88.40;;;;;;4957584;28;20081;-61
2022/08/16 06:09:15;;;;;;;14.98;13.05;;;30.70;85.70;;;;;;4957146;28;20039;-61
2022/08/16 06:11:42;;;;;;;13.80;11.80;;;31.10;82.90;;;;;;4974729;28;20427;-61
2022/08/16 06:14:08;;;;;;;16.70;12.43;;;31.40;80.40;;;;;;4974611;28;20113;-61
2022/08/16 06:16:34;;;;;;;17.08;12.63;;;31.60;78.20;;;;;;4974355;28;20490;-61
2022/08/16 06:18:59;;;;;;;17.95;12.77;;;31.80;76.20;;;;;;4974323;28;20046;-61
2022/08/16 06:21:25;;;;;;;15.43;11.93;;;32.00;74.50;;;;;;4974308;28;20089;-61
2022/08/16 06:23:51;;;;;;;17.08;11.35;;;32.20;72.20;;;;;;4974528;28;20384;-61
2022/08/16 06:26:17;;;;;;;16.92;11.30;;;32.50;70.80;;;;;;4974675;28;20042;-61
2022/08/16 06:28:43;;;;;;;24.90;13.02;;;32.80;69.30;;;;;;4974384;28;20118;-60
2022/08/16 06:31:11;;;;;;;22.95;11.70;;;32.80;67.80;;;;;;4974263;28;20047;-61
2022/08/16 06:33:37;;;;;;;12.98;11.32;;;32.60;67.30;;;;;;4956921;28;20105;-60
2022/08/16 06:36:03;;;;;;;17.20;11.30;;;32.40;67.00;;;;;;4974454;28;20034;-61
2022/08/16 06:38:29;;;;;;;19.35;11.80;;;32.30;66.60;;;;;;4974273;28;20054;-61
2022/08/16 06:40:55;;;;;;;22.13;12.15;;;31.70;67.90;;;;;;4973873;28;20035;-60
2022/08/16 06:43:21;;;;;;;15.52;11.38;;;31.00;69.50;;;;;;4974029;28;20046;-60
2022/08/16 06:45:48;;;;;;;16.10;12.15;;;31.00;78.90;;;;;;4974251;28;20071;-60
2022/08/16 06:48:14;;;;;;;14.93;11.48;;;29.90;72.70;;;;;;4974003;28;20042;-60
2022/08/16 06:50:40;;;;;;;22.77;12.20;;;29.40;74.20;;;;;;4974339;28;20047;-60
2022/08/16 06:53:06;;;;;;;18.77;12.55;;;29.00;75.00;;;;;;4974366;28;20046;-60
2022/08/16 06:55:35;;;;;;;16.85;11.77;;;29.00;75.30;;;;;;4973930;28;20041;-60
2022/08/16 06:58:01;;;;;;;16.42;11.15;;;29.60;73.80;;;;;;4969424;28;20057;-61
2022/08/16 07:00:27;;;;;;;19.77;11.90;;;30.40;71.90;;;;;;4974115;28;20117;-60
2022/08/16 07:02:53;;;;;;;14.65;11.43;;;31.10;69.70;;;;;;4973651;28;20117;-60
2022/08/16 07:05:20;;;;;;;16.80;11.50;;;32.50;74.10;;;;;;4974125;28;20115;-60
2022/08/16 07:07:47;;;;;;;15.63;11.77;;;32.30;65.60;;;;;;4971237;28;20483;-60
2022/08/16 07:10:15;;;;;;;16.20;11.65;;;32.90;63.90;;;;;;4966416;28;20130;-60
2022/08/16 07:12:42;;;;;;;15.98;11.75;;;33.20;62.50;;;;;;4972115;28;20550;-60
2022/08/16 07:15:08;;;;;;;17.75;12.05;;;33.70;61.30;;;;;;4972228;28;20408;-60
2022/08/16 07:17:35;;;;;;;13.95;11.35;;;33.70;60.60;;;;;;4972184;28;20038;-60
2022/08/16 07:20:02;;;;;;;15.23;10.88;;;33.90;60.30;;;;;;4972183;28;20050;-60
2022/08/16 07:22:28;;;;;;;14.80;10.30;;;34.50;64.10;;;;;;4972766;28;20042;-60
2022/08/16 07:24:54;;;;;;;13.32;10.43;;;34.50;58.70;;;;;;4972562;28;20043;-60
2022/08/16 07:27:20;;;;;;;15.23;10.93;;;34.80;57.80;;;;;;4972762;28;20043;-60
2022/08/16 07:29:46;;;;;;;13.70;11.20;;;35.10;57.20;;;;;;4972573;28;20066;-60
2022/08/16 07:32:12;;;;;;;15.05;11.13;;;35.20;56.70;;;;;;4972627;28;20105;-60
2022/08/16 07:34:38;;;;;;;15.27;10.77;;;34.70;57.20;;;;;;4971342;28;20039;-60
2022/08/16 07:37:09;;;;;;;16.33;10.75;;;34.50;57.40;;;;;;4957300;28;20045;-59
2022/08/16 07:39:36;;;;;;;16.52;11.50;;;34.70;56.90;;;;;;4975703;28;20098;-59
2022/08/16 07:42:02;;;;;;;19.17;11.55;;;34.80;56.60;;;;;;4974384;28;20039;-62
2022/08/16 07:44:28;;;;;;;26.17;12.85;;;34.70;56.70;;;;;;4976630;28;20043;-62
2022/08/16 07:46:54;;;;;;;38.90;13.60;;;34.40;57.40;;;;;;4976939;28;20042;-61
2022/08/16 07:49:20;;;;;;;18.75;12.40;;;34.30;57.90;;;;;;4977187;28;20083;-62
2022/08/16 07:51:46;;;;;;;91.82;16.38;;;34.00;57.90;;;;;;4976999;28;20070;-61
2022/08/16 07:54:12;;;;;;;33.05;13.95;;;34.00;58.70;;;;;;4975654;28;20038;-61
2022/08/16 07:56:37;;;;;;;19.00;11.85;;;33.80;58.90;;;;;;4976758;28;20049;-64
2022/08/16 07:59:04;;;;;;;20.38;12.25;;;33.70;59.40;;;;;;4959503;28;20159;-59
2022/08/16 08:01:30;;;;;;;15.63;12.20;;;33.60;59.70;;;;;;4976884;28;20086;-60
2022/08/16 08:03:57;;;;;;;16.38;12.20;;;33.50;60.30;;;;;;4958727;28;20054;-60
2022/08/16 08:06:29;;;;;;;18.17;11.40;;;33.20;60.50;;;;;;4975112;28;20061;-60
2022/08/16 08:08:55;;;;;;;18.85;12.48;;;33.10;60.90;;;;;;4976131;28;20045;-60
2022/08/16 08:11:22;;;;;;;19.52;12.25;;;33.10;61.10;;;;;;4976163;28;20106;-60
2022/08/16 08:13:49;;;;;;;18.13;12.13;;;32.80;61.20;;;;;;4969162;28;20436;-60
2022/08/16 08:16:15;;;;;;;18.30;11.82;;;32.70;62.00;;;;;;4975207;28;20043;-60
2022/08/16 08:18:40;;;;;;;16.00;12.25;;;32.60;62.40;;;;;;4976613;28;20093;-59
2022/08/16 08:21:08;;;;;;;14.27;12.32;;;32.50;62.00;;;;;;4976861;28;20035;-56
2022/08/16 08:23:36;;;;;;;17.50;12.27;;;32.50;62.20;;;;;;4976193;28;20394;-59
2022/08/16 08:26:03;;;;;;;17.83;12.20;;;32.30;62.60;;;;;;4976430;28;20078;-57
2022/08/16 08:28:30;;;;;;;16.77;11.75;;;32.40;62.80;;;;;;4976650;28;20093;-56
2022/08/16 08:30:57;;;;;;;16.27;12.75;;;32.30;62.90;;;;;;4959444;28;20042;-57
2022/08/16 08:33:23;;;;;;;17.08;11.90;;;32.20;62.80;;;;;;4959194;28;20105;-57
2022/08/16 08:35:48;;;;;;;18.08;12.45;;;32.30;63.10;;;;;;4976333;28;20050;-60
2022/08/16 08:38:15;;;;;;;15.15;12.00;;;32.10;63.10;;;;;;4959198;28;20129;-60
2022/08/16 08:40:41;;;;;;;17.50;12.98;;;32.10;63.40;;;;;;4976040;28;20141;-60
2022/08/16 08:43:10;;;;;;;15.35;11.93;;;32.00;63.60;;;;;;4975459;28;20399;-60
2022/08/16 08:45:36;;;;;;;16.85;12.13;;;32.00;63.70;;;;;;4974932;28;20101;-61
2022/08/16 08:48:02;;;;;;;18.05;12.32;;;32.00;63.50;;;;;;4956195;28;20114;-60
2022/08/16 08:50:28;;;;;;;17.13;11.77;;;31.70;63.40;;;;;;4974316;28;20041;-60
2022/08/16 08:52:54;;;;;;;20.55;12.52;;;31.40;63.90;;;;;;4975454;28;20442;-60
2022/08/16 08:55:21;;;;;;;17.50;10.82;;;31.30;64.10;;;;;;4975462;28;20046;-57
2022/08/16 08:57:48;;;;;;;15.98;11.27;;;31.30;64.10;;;;;;4975317;28;20118;-56
2022/08/16 09:00:17;;;;;;;12.38;9.77;;;31.20;63.90;;;;;;4975680;28;20122;-57
2022/08/16 09:02:44;;;;;;;13.88;10.25;;;31.10;64.30;;;;;;4975290;28;20070;-56
2022/08/16 09:05:12;;;;;;;15.52;10.35;;;31.10;64.40;;;;;;4975739;28;20051;-56
2022/08/16 09:07:38;;;;;;;18.60;11.38;;;30.90;69.00;;;;;;4975564;28;20043;-56
2022/08/16 09:10:06;;;;;;;19.45;10.20;;;30.90;64.40;;;;;;4975685;28;20090;-58
2022/08/16 09:12:32;;;;;;;14.82;9.45;;;31.00;64.90;;;;;;4958312;28;20097;-57
2022/08/16 09:14:58;;;;;;;14.95;10.45;;;31.20;65.40;;;;;;4975879;28;20046;-57
2022/08/16 09:17:24;;;;;;;15.95;11.00;;;31.20;64.80;;;;;;4975492;28;20479;-57
2022/08/16 09:19:50;;;;;;;13.13;10.73;;;31.00;64.60;;;;;;4975390;28;20038;-56
2022/08/16 09:22:18;;;;;;;14.30;9.85;;;31.00;65.00;;;;;;4975261;28;20097;-57
2022/08/16 09:24:44;;;;;;;15.85;10.40;;;31.00;65.30;;;;;;4975365;28;20420;-58
2022/08/16 09:27:10;;;;;;;13.85;8.50;;;30.90;68.90;;;;;;4942334;28;20043;-58
2022/08/16 09:29:35;;;;;;;12.90;7.35;;;30.90;64.10;;;;;;4957999;28;20115;-58
2022/08/16 09:32:01;;;;;;;11.32;7.82;;;30.90;63.30;;;;;;4975345;28;20045;-57
2022/08/16 09:34:28;;;;;;;9.50;7.18;;;30.80;63.00;;;;;;4957905;28;20141;-58
2022/08/16 09:36:56;;;;;;;10.63;7.10;;;30.80;63.70;;;;;;4974017;28;20050;-58
2022/08/16 09:39:23;;;;;;;13.10;7.45;;;30.80;63.80;;;;;;4971927;28;20046;-58
2022/08/16 09:41:51;;;;;;;14.07;8.02;;;30.80;63.10;;;;;;4975151;28;20193;-58
2022/08/16 09:44:23;;;;;;;13.38;8.23;;;30.70;63.00;;;;;;4957251;28;20472;-58
2022/08/16 09:46:49;;;;;;;12.90;7.15;;;28.20;61.30;;;;;;4957598;28;20086;-57
2022/08/16 09:49:16;;;;;;;14.45;6.88;;;30.70;63.40;;;;;;4974867;28;20034;-57
2022/08/16 09:51:42;;;;;;;12.88;7.22;;;30.80;63.20;;;;;;4957782;28;20562;-57
2022/08/16 09:54:09;;;;;;;9.95;6.03;;;30.70;62.70;;;;;;4954227;28;20727;-57
2022/08/16 09:56:36;;;;;;;10.98;6.40;;;30.70;62.60;;;;;;4967589;28;20049;-59
2022/08/16 09:59:07;;;;;;;14.55;5.88;;;30.70;62.40;;;;;;4973957;28;20042;-58
2022/08/16 10:01:35;;;;;;;9.25;7.20;;;30.70;62.30;;;;;;4966779;28;20410;-58
2022/08/16 10:04:01;;;;;;;8.68;7.18;;;30.80;62.20;;;;;;4969342;28;20566;-58
2022/08/16 10:06:27;;;;;;;10.75;6.65;;;30.80;62.10;;;;;;4974611;28;20475;-57
2022/08/16 10:08:53;;;;;;;11.02;7.43;;;30.70;62.60;;;;;;4972321;28;20110;-60
2022/08/16 10:14:04;;;;;;;11.73;6.90;;;30.70;62.00;;;;;;4974694;28;20047;-60
2022/08/16 10:16:30;;;;;;;10.82;7.40;;;30.70;62.00;;;;;;4974532;28;20109;-60
2022/08/16 10:18:56;;;;;;;12.52;7.53;;;30.80;62.20;;;;;;4974780;28;20387;-60
2022/08/16 10:21:22;;;;;;;13.10;7.03;;;30.80;62.30;;;;;;4957397;28;20077;-60
2022/08/16 10:23:48;;;;;;;11.48;6.72;;;30.90;62.50;;;;;;4974608;28;20117;-60
2022/08/16 10:26:14;;;;;;;9.73;7.25;;;31.00;62.60;;;;;;4974600;28;20042;-59
2022/08/16 10:28:40;;;;;;;10.88;7.10;;;31.00;62.00;;;;;;4974507;28;20027;-60
2022/08/16 10:31:08;;;;;;;13.10;7.00;;;31.00;62.20;;;;;;4974737;28;20481;-60
2022/08/16 10:33:35;;;;;;;12.02;6.63;;;31.00;62.00;;;;;;4974692;28;20454;-60
2022/08/16 10:36:05;;;;;;;11.18;6.43;;;31.00;62.00;;;;;;4974401;28;20495;-59
2022/08/16 10:38:32;;;;;;;10.73;5.90;;;31.00;61.50;;;;;;4957152;28;20533;-59
2022/08/16 10:40:58;;;;;;;9.27;5.75;;;31.00;61.30;;;;;;4974430;28;20043;-59
2022/08/16 10:43:24;;;;;;;13.45;6.15;;;31.10;60.70;;;;;;4957060;28;20391;-60
2022/08/16 10:45:50;;;;;;;9.77;6.22;;;31.00;60.10;;;;;;4941326;28;20046;-59
2022/08/16 10:48:17;;;;;;;11.02;6.20;;;31.00;60.40;;;;;;4974474;28;20159;-60
2022/08/16 10:50:42;;;;;;;7.70;5.35;;;31.10;61.10;;;;;;4974769;28;20035;-60
2022/08/16 10:53:08;;;;;;;8.57;5.30;;;31.20;60.00;;;;;;4974287;28;20058;-60
2022/08/16 10:55:36;;;;;;;10.38;4.22;;;31.20;59.10;;;;;;4974499;28;20117;-60
2022/08/16 10:58:06;;;;;;;7.78;4.65;;;31.10;58.20;;;;;;4974151;28;20495;-59
2022/08/16 11:00:34;;;;;;;12.05;4.97;;;31.10;58.30;;;;;;4974227;28;20475;-59
2022/08/16 11:03:03;;;;;;;10.52;4.97;;;31.00;58.20;;;;;;4974021;28;20142;-60
2022/08/16 11:05:31;;;;;;;5.85;3.88;;;31.10;58.30;;;;;;4956841;28;20050;-60
2022/08/16 11:07:57;;;;;;;7.35;5.10;;;31.10;57.60;;;;;;4974177;28;20038;-59
2022/08/16 11:10:30;;;;;;;8.75;5.13;;;31.20;57.90;;;;;;4974373;28;20041;-60
2022/08/16 11:12:57;;;;;;;6.85;4.50;;;31.20;57.70;;;;;;4977895;28;20043;-59
2022/08/16 11:15:23;;;;;;;7.95;4.07;;;31.20;57.70;;;;;;4978183;28;20046;-61
2022/08/16 11:17:51;;;;;;;8.88;4.97;;;31.10;57.20;;;;;;4977949;28;20375;-60
2022/08/16 11:20:18;;;;;;;6.55;4.43;;;31.20;57.50;;;;;;4977724;28;20043;-60
2022/08/16 11:22:45;;;;;;;5.57;4.30;;;31.30;57.50;;;;;;4977694;28;20066;-60
2022/08/16 11:25:13;;;;;;;8.48;4.75;;;31.30;58.10;;;;;;4977595;28;20045;-60
2022/08/16 11:27:39;;;;;;;5.32;4.65;;;31.50;57.10;;;;;;4977907;28;20039;-58
2022/08/16 11:30:08;;;;;;;10.40;5.40;;;31.50;56.80;;;;;;4977669;28;20037;-60
2022/08/16 11:32:34;;;;;;;8.88;5.10;;;31.60;56.90;;;;;;4977651;28;20038;-59
2022/08/16 11:35:06;;;;;;;8.98;5.20;;;31.60;57.10;;;;;;4977521;28;20402;-60
2022/08/16 11:37:33;;;;;;;7.30;4.88;;;31.70;56.20;;;;;;4977510;28;20427;-60
2022/08/16 11:40:00;;;;;;;8.32;4.68;;;31.60;55.90;;;;;;4977310;28;20121;-60
2022/08/16 11:42:26;;;;;;;7.00;4.35;;;31.70;56.10;;;;;;4960046;28;20051;-59
2022/08/16 11:44:51;;;;;;;14.18;4.65;;;31.60;55.70;;;;;;4959932;28;20035;-59
2022/08/16 11:47:17;;;;;;;9.43;4.90;;;31.60;55.50;;;;;;4960133;28;20043;-60
2022/08/16 11:49:42;;;;;;;8.07;4.70;;;31.50;55.70;;;;;;4977238;28;20098;-59
2022/08/16 11:52:09;;;;;;;6.75;4.22;;;31.40;55.80;;;;;;4977213;28;20144;-59
2022/08/16 11:54:34;;;;;;;4.97;4.07;;;31.40;55.60;;;;;;4960150;28;20039;-59
2022/08/16 11:57:00;;;;;;;5.80;4.07;;;31.40;54.90;;;;;;4977149;28;20114;-59
2022/08/16 11:59:28;;;;;;;12.27;4.00;;;31.50;54.80;;;;;;4977303;28;20070;-57
2022/08/16 12:01:55;;;;;;;7.15;4.10;;;31.70;55.30;;;;;;4976822;28;20153;-57
2022/08/16 12:04:21;;;;;;;8.73;4.15;;;31.70;54.50;;;;;;4976932;28;20118;-57
2022/08/16 12:06:48;;;;;;;8.43;4.57;;;31.90;54.90;;;;;;4976940;28;20035;-61
2022/08/16 12:09:13;;;;;;;9.10;3.97;;;32.00;53.50;;;;;;4976753;28;20039;-61
2022/08/16 12:11:39;;;;;;;8.00;3.88;;;32.20;53.00;;;;;;4959921;28;20109;-61
2022/08/16 12:14:06;;;;;;;4.80;3.38;;;32.20;52.60;;;;;;4977066;28;20081;-58
2022/08/16 12:16:33;;;;;;;3.75;3.10;;;32.20;52.20;;;;;;4976867;28;20053;-59
2022/08/16 12:18:59;;;;;;;6.60;3.30;;;32.30;51.00;;;;;;4977036;28;20082;-58
2022/08/16 12:21:25;;;;;;;6.72;3.38;;;32.30;50.50;;;;;;4976336;28;20133;-58
2022/08/16 12:23:51;;;;;;;6.93;3.30;;;32.40;50.40;;;;;;4976886;28;20041;-60
2022/08/16 12:26:17;;;;;;;7.80;3.45;;;32.60;50.10;;;;;;4976583;28;20510;-59
2022/08/16 12:28:44;;;;;;;6.68;3.80;;;32.60;49.90;;;;;;4976671;28;20038;-59
2022/08/16 12:31:09;;;;;;;5.53;3.38;;;32.70;50.20;;;;;;4976539;28;20058;-58
2022/08/16 12:33:35;;;;;;;5.93;3.58;;;32.70;49.80;;;;;;4959267;28;20046;-59